Lietadlo (typ, imatrikulačný znak): _________________/__________________
Meno pilota (skontroloval): ___________________________________
Podpis pilota (skontroloval): ___________________________________

Predpoveď na dnes

Oblačno až zamračené. Na mnohých miestach dážď alebo prehánky, od cca 1800 m sneženie. K večeru vo východnej polovici čiastočné ubúdanie zrážok. Najvyššia denná teplota 11 až 16, na Kysuciach, Orave, Liptove a na Spiši okolo 9 st. Teplota na horách vo výške 1500 m okolo 3 st. Väčšinou severozápadný až severný vietor 4 až 9 m/s (15 až 30 km/h), miestami v nárazoch okolo 15 m/s (55 km/h). Na horách prudký vietor až víchrica. Predpokladané množstvo zrážok: do 10 mm, ojedinele 10 až 20 mm.

SHMÚ, OMPaV, MJ 21.9.2017 11:50 LSEČ

METAR - Letisková meteo správa

Letisková meteorologická správa METAR

Meteorologické informácie z ďalších profesionálnych meteorologických staníc SHMÚ zobrazené v tvare zodpovedajúcom pravidlám kódovania správ METAR sú uvedené v položke „METSYN Informácie o správe METAR

21.09.2017 - 15:30 UTC

METAR LZIB 211530Z 34011KT 9999 -RA FEW028 BKN040 14/09 Q1017 NOSIG=
 METAR LZKZ 211530Z 36014KT 9999 FEW017 OVC039 13/08 Q1011 NOSIG=
 METAR LZPP 211530Z 30014KT 9999 FEW025 BKN060 OVC080 12/09 Q1016=
 METAR LZSL 211530Z 34006KT 270V020 9999 BKN042 OVC090 11/07 Q1013=
 METAR LZTT 211530Z VRB02KT 9999 FEW010 SCT026 BKN056 09/06 Q1012
 NOSIG=
 METAR LZZI 211530Z VRB03KT 9999 -RA FEW030 BKN080 11/07 Q1015=
 

21.09.2017 - 15:00 UTC

METAR LZIB 211500Z 32010KT 9999 FEW028 SCT046 BKN076 15/08 Q1017
 NOSIG=
 METAR LZKZ 211500Z 36015KT 9999 FEW017 OVC036 13/08 Q1011 NOSIG=
 METAR LZPP 211500Z 31014KT 9999 FEW025 BKN060 OVC080 12/08 Q1016=
 METAR LZSL 211500Z 36006KT 9999 BKN046 OVC070 12/07 Q1013=
 METAR LZTT 211500Z 24004KT 9999 FEW010 SCT026 BKN056 09/06 Q1012
 NOSIG=
 METAR LZZI 211500Z VRB03KT 9999 -RA FEW030 BKN063 11/07 Q1015=
 

21.09.2017 - 15:00 UTC

METAR LZMC 211500Z 34012G22KT 9999 SCT037 BKN045 OVC070
 14/07 Q1017=
 METAR LZPW 211500Z 01008KT 9999 -SHRA FEW010 SCT020
 OVC040 11/09 Q1012=
 

TAF - Letisková predpoveď

21.09.2017 - 14:00 UTC

TAF LZSL 211400Z 2115/2200 36010KT 9999 BKN045 OVC080
     TEMPO 2115/2120 34020KT -RA
     BECMG 2121/2123 SCT008 BKN030=
 TAF LZPP 211400Z 2115/2200 35012KT 9999 -RA SCT025 OVC060
     TEMPO 2115/2118 33020KT
     TEMPO 2115/2121 5000 RA BKN008 OVC025
     BECMG 2121/2123 BKN014 OVC080=
 TAF LZZI 211400Z 2115/2200 03008KT 9999 -RA SCT010 BKN030 OVC050
     TEMPO 2115/2123 4000 RA BKN007 OVC025=
 

21.09.2017 - 11:00 UTC

TAF LZSL 211100Z 2112/2121 35012KT 9999 BKN040 OVC080
     TEMPO 2112/2117 01022KT -RA
     PROB40 TEMPO 2112/2114 4000 RA SCT008 OVC030=
 TAF LZPP 211100Z 2112/2121 34012KT 9999 -RA SCT025 BKN040 OVC070
     TEMPO 2112/2116 32015G25KT
     TEMPO 2113/2121 4500 RA BKN008 OVC025=
 TAF LZZI 211100Z 2112/2121 31010KT 9999 -RA SCT010 BKN030 OVC050
     TEMPO 2112/2121 01008KT 4000 RA BKN007 OVC025=
 

21.09.2017 - 11:00 UTC

TAF LZIB 211100Z 2112/2212 33010KT 9999 -RA FEW020 BKN040 OVC070
     TEMPO 2112/2115 31020KT
     TEMPO 2113/2202 6000 RA BKN015 OVC030
     BECMG 2206/2208 SCT025 SCT100=
 TAF LZKZ 211100Z 2112/2212 01016KT 9999 SCT030 BKN060
     TEMPO 2112/2116 03016G26KT RA BKN025 OVC050
     BECMG 2119/2121 02006KT
     BECMG 2207/2209 01012KT SCT030=
 TAF LZTT 211100Z 2112/2212 23010KT 9999 SCT030 BKN050
     TEMPO 2112/2118 8000 -RA SCT010 OVC050
     BECMG 2121/2123 27004KT 7000 BKN008
     TEMPO 2123/2206 0800 BCFG SCT002 BKN003
     BECMG 2207/2209 28010KT 9999 BKN014
     BECMG 2209/2211 SCT025=
 

21.09.2017 - 05:00 UTC

TAF AMD LZIB 210943Z 2109/2206 33010KT 9999 SCT043 BKN060
     TEMPO 2109/2113 31020KT
     TEMPO 2109/2114 -RA BKN040
     BECMG 2114/2116 -RA SCT020 BKN035
     TEMPO 2114/2202 6000 RA BKN015 OVC030=
 

21.09.2017 - 08:00 UTC

TAF LZSL 210800Z 2109/2118 35012KT 9999 -RA FEW010 BKN040 OVC070
     PROB40 TEMPO 2109/2112 4000 RA BKN005 OVC030
     TEMPO 2110/2117 01020KT=
 TAF LZPP 210800Z 2109/2118 35012KT 9999 -RA SCT025 BKN040 OVC070
     TEMPO 2109/2115 34015G25KT
     TEMPO 2111/2118 4500 RA BKN008 OVC025=
 TAF LZZI 210800Z 2109/2118 04010KT 9999 -RA SCT010 BKN030 OVC050
     TEMPO 2109/2118 4000 RA BKN007 OVC025=
 

21.09.2017 - 05:00 UTC

TAF LZIB 210500Z 2106/2206 33010KT 9999 SCT043 BKN060
     TEMPO 2106/2113 31016KT
     BECMG 2108/2110
     PROB40 TEMPO 2108/2115 -RA BKN040
     BECMG 2114/2116 -RA SCT020 BKN035
     TEMPO 2122/2202 6000 RA SCT015 OVC030=
 TAF LZKZ 210500Z 2106/2206 01017KT 9999 FEW040 BKN060
     TEMPO 2106/2200 -RA BKN040
     PROB40 TEMPO 2106/2115 01025G36KT 5000 RA SCT014 OVC030
     BECMG 2118/2120 02008KT=
 TAF LZTT 210500Z 2106/2206 27005KT 9999 SCT020 BKN080
     TEMPO 2106/2118 8000 -RA SCT015 BKN030
     PROB40 TEMPO 2106/2112 4000 RA SCT005 BKN012 OVC030
     BECMG 2119/2121 4000 BCFG BKN008
     TEMPO 2200/2206 0800 FG BKN003=
 

21.09.2017 - 05:00 UTC

TAF LZSL 210500Z 2106/2115 36008KT 9999 SCT035 BKN060
     TEMPO 2106/2115 35013G24KT -RA SCT020 BKN040
     PROB30 TEMPO 2106/2112 5000 RA SCT012 BKN025=
 TAF LZPP 210500Z 2106/2115 35012KT 9999 FEW025 BKN040
     TEMPO 2109/2115 35015G25KT -RA
     PROB40 TEMPO 2112/2115 5000 RA BKN025=
 TAF LZZI 210500Z 2106/2115 03006KT 9999 -RA SCT025 BKN050
     PROB40 TEMPO 2106/2115 4000 RA SCT012 BKN025=
 

21.09.2017 - 02:00 UTC

TAF LZSL 210200Z 2103/2112 36008KT 9999 SCT035 BKN060
     TEMPO 2103/2112 35013KT -RA SCT020 BKN040
     PROB30 TEMPO 2105/2109 4000 RA SCT012 BKN025=
 TAF LZZI 210200Z 2103/2112 03006KT 9999 SCT025 BKN050
     TEMPO 2103/2112 -RA
     PROB30 TEMPO 2105/2112 4000 RA SCT012 BKN025=